Time;durP1;ratioP1;P1;durP2;ratioP2;P2;SDS_P1;SDS_P2;PMS_P1;PMS_P2;Temp;Humidity;BMP_temperature;BMP_pressure;BME280_temperature;BME280_humidity;BME280_pressure;Samples;Min_cycle;Max_cycle;Signal;HPM_P1;HPM_P2
2022/11/26 00:02:28;;;;;;;15.10;13.40;;;;;;;2.54;100.00;102680.75;5209725;28;20029;-66
2022/11/26 00:04:58;;;;;;;13.52;12.27;;;;;;;2.47;100.00;102683.22;5209613;28;20090;-67
2022/11/26 00:07:31;;;;;;;18.10;15.60;;;;;;;2.44;100.00;102683.53;5209677;28;20029;-67
2022/11/26 00:10:05;;;;;;;17.08;15.43;;;;;;;2.41;100.00;102689.16;5209353;28;20017;-65
2022/11/26 00:12:35;;;;;;;14.82;13.00;;;;;;;2.40;100.00;102686.66;5251172;23;20036;-69
2022/11/26 00:15:17;;;;;;;19.33;16.95;;;;;;;2.34;100.00;102672.13;5251653;28;20028;-67
2022/11/26 00:17:49;;;;;;;17.25;15.65;;;;;;;2.44;100.00;102688.84;5251634;28;20032;-68
2022/11/26 00:20:30;;;;;;;18.05;13.32;;;;;;;2.43;100.00;102692.50;5247777;28;20017;-69
2022/11/26 00:23:03;;;;;;;17.60;15.20;;;;;;;2.34;100.00;102682.78;5230914;28;20024;-68
2022/11/26 00:25:42;;;;;;;15.50;13.82;;;;;;;2.33;100.00;102686.44;5230931;28;20025;-68
2022/11/26 00:28:34;;;;;;;20.77;16.42;;;;;;;2.31;100.00;102693.78;5230790;28;20127;-67
2022/11/26 00:31:11;;;;;;;13.77;12.63;;;;;;;2.25;100.00;102697.06;5230530;28;20113;-69
2022/11/26 00:33:41;;;;;;;16.13;14.90;;;;;;;2.24;100.00;102693.56;5248628;28;20025;-69
2022/11/26 00:36:43;;;;;;;20.50;16.50;;;;;;;2.27;100.00;102703.91;5247421;28;20031;-68
2022/11/26 00:39:20;;;;;;;20.98;15.88;;;;;;;2.12;100.00;102693.97;5217810;28;20033;-69
2022/11/26 00:41:51;;;;;;;113.78;27.67;;;;;;;2.20;100.00;102696.69;5230298;28;20020;-70
2022/11/26 00:44:24;;;;;;;30.65;16.10;;;;;;;2.13;100.00;102695.63;5247222;28;20123;-69
2022/11/26 00:46:54;;;;;;;23.77;16.58;;;;;;;2.07;100.00;102697.09;5230457;28;20025;-69
2022/11/26 00:49:27;;;;;;;16.02;14.57;;;;;;;1.97;100.00;102670.56;5230293;28;20093;-69
2022/11/26 00:51:57;;;;;;;27.08;15.07;;;;;;;2.12;100.00;102688.63;5229896;28;20507;-68
2022/11/26 00:54:28;;;;;;;14.98;12.68;;;;;;;2.10;100.00;102685.28;5246907;28;20032;-68
2022/11/26 00:56:59;;;;;;;15.27;14.18;;;;;;;2.11;100.00;102682.47;5230108;28;20438;-69
2022/11/26 00:59:29;;;;;;;26.05;17.70;;;;;;;2.19;100.00;102689.69;5229834;28;20028;-68
2022/11/26 01:02:00;;;;;;;15.82;14.45;;;;;;;2.14;100.00;102681.31;5229787;28;20024;-69
2022/11/26 01:04:30;;;;;;;24.52;17.75;;;;;;;2.06;100.00;102689.25;5229954;28;20032;-70
2022/11/26 01:07:01;;;;;;;18.48;16.50;;;;;;;2.04;100.00;102687.56;5246707;28;20025;-70
2022/11/26 01:09:32;;;;;;;15.95;14.07;;;;;;;2.06;100.00;102710.56;5247407;28;20029;-68
2022/11/26 01:12:02;;;;;;;36.92;17.52;;;;;;;1.89;100.00;102704.28;5229559;28;20068;-69
2022/11/26 01:14:33;;;;;;;13.63;12.35;;;;;;;1.88;100.00;102713.25;5229867;28;20036;-68
2022/11/26 01:17:04;;;;;;;16.52;15.13;;;;;;;1.93;100.00;102710.97;5229695;28;20016;-69
2022/11/26 01:19:35;;;;;;;15.55;13.05;;;;;;;1.98;100.00;102717.53;5246127;28;20119;-68
2022/11/26 01:22:17;;;;;;;14.25;12.95;;;;;;;1.79;100.00;102688.38;5229337;28;20391;-69
2022/11/26 01:24:48;;;;;;;19.52;16.63;;;;;;;1.94;100.00;102716.16;5247490;28;20035;-69
2022/11/26 01:27:19;;;;;;;14.63;13.32;;;;;;;1.94;100.00;102716.16;5229590;28;20559;-71
2022/11/26 01:29:50;;;;;;;17.38;15.85;;;;;;;1.93;100.00;102718.97;5245843;28;20488;-69
2022/11/26 01:32:20;;;;;;;19.27;16.38;;;;;;;1.70;100.00;102689.31;5229303;28;20047;-69
2022/11/26 01:34:51;;;;;;;29.27;16.83;;;;;;;1.92;100.00;102723.47;5229381;28;20020;-69
2022/11/26 01:37:21;;;;;;;24.05;18.25;;;;;;;1.93;100.00;102721.63;5229513;28;20115;-69
2022/11/26 01:39:52;;;;;;;18.23;16.27;;;;;;;1.90;100.00;102712.13;5229212;28;20016;-69
2022/11/26 01:42:39;;;;;;;14.85;13.50;;;;;;;1.88;100.00;102719.44;5228967;28;20082;-69
2022/11/26 01:45:16;;;;;;;17.98;16.30;;;;;;;1.99;100.00;102734.34;5229011;28;20059;-69
2022/11/26 01:47:47;;;;;;;21.95;16.73;;;;;;;2.01;100.00;102732.38;5245917;28;20461;-69
2022/11/26 01:50:27;;;;;;;15.57;13.93;;;;;;;1.98;100.00;102736.19;5229097;28;20546;-69
2022/11/26 01:53:22;;;;;;;15.05;13.85;;;;;;;1.96;100.00;102732.00;5245947;28;20028;-69
2022/11/26 01:56:09;;;;;;;16.88;15.27;;;;;;;2.02;100.00;102734.84;5229238;28;20052;-69
2022/11/26 01:58:44;;;;;;;18.75;17.05;;;;;;;2.07;100.00;102738.88;5245599;28;20024;-69
2022/11/26 02:01:15;;;;;;;16.95;14.95;;;;;;;2.12;100.00;102747.25;5228508;28;20035;-70
2022/11/26 02:03:53;;;;;;;15.48;14.02;;;;;;;2.10;100.00;102728.75;5245359;28;20039;-70
2022/11/26 02:06:30;;;;;;;18.88;17.33;;;;;;;2.00;100.00;102722.69;5229797;28;20028;-69
2022/11/26 02:09:04;;;;;;;33.40;18.50;;;;;;;2.02;100.00;102731.38;5229971;28;20020;-70
2022/11/26 02:11:35;;;;;;;18.63;15.43;;;;;;;1.96;100.00;102735.50;5228642;28;20028;-69
2022/11/26 02:14:10;;;;;;;22.60;18.50;;;;;;;1.92;100.00;102736.78;5228767;28;20111;-70
2022/11/26 02:16:59;;;;;;;14.40;12.43;;;;;;;1.86;100.00;102734.72;5245605;28;20063;-69
2022/11/26 02:19:51;;;;;;;26.13;16.35;;;;;;;1.86;100.00;102742.72;5228814;28;20020;-69
2022/11/26 02:22:59;;;;;;;13.70;12.82;;;;;;;1.88;100.00;102747.91;5245269;28;20024;-69
2022/11/26 02:25:36;;;;;;;13.82;12.52;;;;;;;1.86;100.00;102750.72;5228549;28;20078;-70
2022/11/26 02:28:25;;;;;;;26.95;14.57;;;;;;;1.84;100.00;102752.69;5245499;28;20028;-69
2022/11/26 02:31:19;;;;;;;15.18;13.80;;;;;;;1.81;100.00;102765.47;5245070;28;20032;-70
2022/11/26 02:34:00;;;;;;;19.52;14.52;;;;;;;1.80;100.00;102759.31;5228648;28;20021;-68
2022/11/26 02:36:39;;;;;;;27.05;13.48;;;;;;;1.83;100.00;102769.66;5228760;28;20396;-69
2022/11/26 02:39:16;;;;;;;16.67;15.30;;;;;;;1.84;100.00;102765.16;5245399;28;20101;-70
2022/11/26 02:41:52;;;;;;;18.27;14.25;;;;;;;1.95;100.00;102778.28;5228455;28;20016;-70
2022/11/26 02:44:26;;;;;;;17.92;12.77;;;;;;;1.75;100.00;102737.59;5245319;28;20028;-68
2022/11/26 02:47:03;;;;;;;19.25;14.55;;;;;;;2.02;100.00;102774.81;5229095;28;20217;-68
2022/11/26 02:49:38;;;;;;;21.05;14.65;;;;;;;2.07;100.00;102776.19;5245182;28;20024;-68
2022/11/26 02:52:10;;;;;;;16.10;14.65;;;;;;;2.07;100.00;102773.53;5246544;28;20021;-68
2022/11/26 02:54:42;;;;;;;21.88;15.02;;;;;;;2.14;100.00;102764.78;5245589;28;20028;-69
2022/11/26 02:57:17;;;;;;;17.60;15.70;;;;;;;2.13;100.00;102752.44;5229113;28;20383;-68
2022/11/26 02:59:48;;;;;;;23.80;15.35;;;;;;;2.21;100.00;102773.84;5228382;28;20028;-68
2022/11/26 03:02:44;;;;;;;17.45;15.55;;;;;;;2.24;100.00;102770.03;5229333;28;20059;-70
2022/11/26 03:05:16;;;;;;;21.13;17.23;;;;;;;2.23;100.00;102779.00;5232849;28;20021;-68
2022/11/26 03:07:50;;;;;;;21.40;16.13;;;;;;;2.20;100.00;102772.16;5232452;28;20039;-69
2022/11/26 03:10:27;;;;;;;25.55;16.38;;;;;;;2.25;100.00;102766.38;5232905;28;20025;-69
2022/11/26 03:12:58;;;;;;;19.33;16.27;;;;;;;2.23;100.00;102769.19;5250703;28;20115;-69
2022/11/26 03:15:28;;;;;;;22.35;14.73;;;;;;;2.23;100.00;102773.69;5233063;28;20111;-69
2022/11/26 03:17:58;;;;;;;19.65;15.27;;;;;;;1.89;100.00;102720.25;5233199;28;20028;-69
2022/11/26 03:20:29;;;;;;;22.30;15.32;;;;;;;1.97;100.00;102750.50;5249133;28;20046;-69
2022/11/26 03:22:59;;;;;;;17.27;15.40;;;;;;;1.94;100.00;102745.47;5233164;28;20081;-69
2022/11/26 03:25:30;;;;;;;24.88;17.50;;;;;;;1.65;100.00;102723.53;5267203;22;20319;-87
2022/11/26 03:28:01;;;;;;;21.25;14.73;;;;;;;1.84;100.00;102752.69;5265755;28;20038;-89
2022/11/26 03:30:32;;;;;;;17.02;15.18;;;;;;;1.55;100.00;102694.31;5265467;28;20024;-89
2022/11/26 03:33:02;;;;;;;15.77;13.65;;;;;;;2.04;100.00;102794.16;5304567;28;20038;-89
2022/11/26 03:35:32;;;;;;;17.10;15.80;;;;;;;2.02;100.00;102790.81;5286365;28;20032;-89
2022/11/26 03:38:03;;;;;;;32.33;16.95;;;;;;;1.44;100.00;102694.56;5305082;28;20035;-88
2022/11/26 03:40:33;;;;;;;20.95;17.45;;;;;;;1.52;100.00;102707.94;5304604;28;20030;-89
2022/11/26 03:43:03;;;;;;;15.60;14.02;;;;;;;1.59;100.00;102769.41;5304677;28;20030;-89
2022/11/26 03:45:34;;;;;;;14.27;13.05;;;;;;;1.58;100.00;102736.63;5309834;28;20027;-89
2022/11/26 03:48:05;;;;;;;18.55;14.88;;;;;;;1.82;100.00;102783.97;5289914;28;20031;-89
2022/11/26 03:50:35;;;;;;;16.30;14.38;;;;;;;1.28;100.00;102719.16;5304294;28;20031;-89
2022/11/26 03:53:05;;;;;;;19.25;14.98;;;;;;;1.31;100.00;102720.69;5303907;28;20023;-89
2022/11/26 03:55:36;;;;;;;18.83;14.88;;;;;;;1.87;100.00;102812.81;5285983;28;20027;-88
2022/11/26 03:58:06;;;;;;;18.42;13.95;;;;;;;1.44;100.00;102739.81;5304364;28;20028;-89
2022/11/26 04:00:37;;;;;;;24.27;14.77;;;;;;;1.62;100.00;102761.13;5303778;28;20051;-89
2022/11/26 04:03:07;;;;;;;14.23;12.40;;;;;;;1.49;100.00;102739.34;5304636;28;20476;-88
2022/11/26 04:05:38;;;;;;;19.70;15.35;;;;;;;1.58;100.00;102763.25;5304279;28;20024;-89
2022/11/26 04:08:08;;;;;;;15.65;13.32;;;;;;;1.88;100.00;102801.16;5285975;28;20019;-89
2022/11/26 04:10:39;;;;;;;19.25;14.52;;;;;;;0.70;100.00;102641.50;5285423;28;20026;-90
2022/11/26 04:13:09;;;;;;;16.65;12.85;;;;;;;0.59;100.00;102612.44;5303752;28;20027;-89
2022/11/26 04:15:40;;;;;;;18.35;16.55;;;;;;;1.11;100.00;102727.13;5305851;28;20085;-89
2022/11/26 04:18:11;;;;;;;29.80;15.73;;;;;;;0.09;100.00;102538.41;5304073;28;20084;-90
2022/11/26 04:20:41;;;;;;;16.67;14.90;;;;;;;1.81;100.00;102811.59;5286322;28;20028;-90
2022/11/26 04:23:12;;;;;;;17.20;13.52;;;;;;;0.99;100.00;102703.38;5286200;28;20035;-90
2022/11/26 04:25:42;;;;;;;14.57;12.25;;;;;;;0.86;100.00;102670.13;5285311;28;20028;-88
2022/11/26 04:28:13;;;;;;;13.40;11.43;;;;;;;1.54;100.00;102779.66;5302739;28;20042;-87
2022/11/26 04:30:44;;;;;;;18.42;12.98;;;;;;;1.30;100.00;102727.84;5284247;28;20026;-88
2022/11/26 04:33:15;;;;;;;22.98;13.55;;;;;;;1.83;100.00;102844.25;5284274;28;20400;-87
2022/11/26 04:35:45;;;;;;;17.13;12.93;;;;;;;1.31;100.00;102741.97;5302911;28;20064;-88
2022/11/26 04:38:15;;;;;;;15.85;12.98;;;;;;;1.88;100.00;102822.50;5284261;28;20019;-87
2022/11/26 04:40:47;;;;;;;21.38;14.30;;;;;;;1.58;100.00;102773.06;5284277;28;20024;-88
2022/11/26 04:43:17;;;;;;;14.80;12.32;;;;;;;1.06;100.00;102679.66;5303227;28;20031;-89
2022/11/26 04:45:48;;;;;;;19.05;13.35;;;;;;;1.93;100.00;102823.72;5302844;28;20020;-89
2022/11/26 04:48:18;;;;;;;14.95;12.68;;;;;;;1.95;100.00;102824.41;5301871;28;20063;-88
2022/11/26 04:50:49;;;;;;;23.27;14.55;;;;;;;1.08;100.00;102688.34;5302603;28;20078;-89
2022/11/26 04:53:20;;;;;;;17.00;13.63;;;;;;;1.76;100.00;102805.88;5302793;28;20042;-89
2022/11/26 04:55:51;;;;;;;13.18;11.65;;;;;;;0.87;100.00;102658.47;5284070;28;20024;-89
2022/11/26 04:58:21;;;;;;;26.35;16.08;;;;;;;1.95;100.00;102823.56;5302529;28;20041;-88
2022/11/26 05:00:52;;;;;;;18.23;14.35;;;;;;;1.94;100.00;102817.41;5284577;28;20091;-88
2022/11/26 05:03:22;;;;;;;13.98;12.50;;;;;;;1.59;100.00;102748.09;5312722;27;20032;-91
2022/11/26 05:05:53;;;;;;;15.70;14.05;;;;;;;1.64;100.00;102783.97;5315704;27;20030;-87
2022/11/26 05:08:23;;;;;;;14.13;11.25;;;;;;;1.88;100.00;102814.50;5302645;28;20019;-88
2022/11/26 05:10:54;;;;;;;13.00;11.40;;;;;;;1.71;100.00;102797.53;5284237;28;20027;-89
2022/11/26 05:13:25;;;;;;;13.82;12.40;;;;;;;1.25;100.00;102716.78;5284580;28;20023;-88
2022/11/26 05:15:55;;;;;;;16.98;13.32;;;;;;;1.86;100.00;102819.97;5284151;28;20016;-88
2022/11/26 05:18:26;;;;;;;18.75;12.80;;;;;;;1.71;100.00;102808.16;5301743;28;20034;-88
2022/11/26 05:20:56;;;;;;;13.35;12.27;;;;;;;1.92;100.00;102838.03;5284016;28;20015;-87
2022/11/26 05:23:26;;;;;;;21.98;11.80;;;;;;;1.77;100.00;102818.19;5284378;28;20047;-88
2022/11/26 05:25:57;;;;;;;22.52;10.70;;;;;;;1.50;100.00;102770.31;5282927;28;20055;-87
2022/11/26 05:28:27;;;;;;;10.75;10.05;;;;;;;1.61;100.00;102808.22;5288850;28;20055;-87
2022/11/26 05:31:02;;;;;;;18.67;13.73;;;;;;;1.90;100.00;102842.66;5296738;28;20083;-88
2022/11/26 05:33:33;;;;;;;15.52;10.27;;;;;;;1.03;100.00;102738.50;5299302;27;20020;-91
2022/11/26 05:36:04;;;;;;;21.17;13.10;;;;;;;0.97;100.00;102717.78;5316618;27;20034;-88
2022/11/26 05:38:34;;;;;;;18.88;11.45;;;;;;;1.93;100.00;102870.84;5313994;27;20097;-88
2022/11/26 05:41:05;;;;;;;11.07;10.15;;;;;;;1.34;100.00;102779.78;5285009;28;20031;-88
2022/11/26 05:43:35;;;;;;;19.20;11.55;;;;;;;0.78;100.00;102672.69;5284054;28;20019;-89
2022/11/26 05:46:06;;;;;;;17.15;11.63;;;;;;;0.94;100.00;102713.59;5283669;28;20076;-88
2022/11/26 05:48:37;;;;;;;13.38;10.57;;;;;;;1.64;100.00;102818.56;5283154;28;20031;-88
2022/11/26 05:51:07;;;;;;;22.92;11.55;;;;;;;1.32;100.00;102765.78;5301002;28;20023;-88
